sensor_id;sensor_type;location;lat;lon;timestamp;P1;durP1;ratioP1;P2;durP2;ratioP2
49502;SDS011;35409;48.776;9.204;2023-06-22T00:00:46;12.93;;;7.88;;
49502;SDS011;35409;48.776;9.204;2023-06-22T00:03:13;8.55;;;7.53;;
49502;SDS011;35409;48.776;9.204;2023-06-22T00:05:39;13.27;;;8.18;;
49502;SDS011;35409;48.776;9.204;2023-06-22T00:08:04;9.85;;;8.23;;
49502;SDS011;35409;48.776;9.204;2023-06-22T00:10:30;10.32;;;7.90;;
49502;SDS011;35409;48.776;9.204;2023-06-22T00:12:56;10.63;;;7.60;;
49502;SDS011;35409;48.776;9.204;2023-06-22T00:15:21;8.88;;;7.97;;
49502;SDS011;35409;48.776;9.204;2023-06-22T00:17:47;9.50;;;8.25;;
49502;SDS011;35409;48.776;9.204;2023-06-22T00:20:14;11.20;;;7.50;;
49502;SDS011;35409;48.776;9.204;2023-06-22T00:22:39;10.98;;;7.60;;
49502;SDS011;35409;48.776;9.204;2023-06-22T00:25:08;10.32;;;8.32;;
49502;SDS011;35409;48.776;9.204;2023-06-22T00:27:35;10.00;;;8.18;;
49502;SDS011;35409;48.776;9.204;2023-06-22T00:30:01;11.50;;;7.78;;
49502;SDS011;35409;48.776;9.204;2023-06-22T00:32:26;9.52;;;8.02;;
49502;SDS011;35409;48.776;9.204;2023-06-22T00:34:52;8.30;;;7.18;;
49502;SDS011;35409;48.776;9.204;2023-06-22T00:37:18;8.05;;;7.30;;
49502;SDS011;35409;48.776;9.204;2023-06-22T00:39:43;11.38;;;8.93;;
49502;SDS011;35409;48.776;9.204;2023-06-22T00:42:09;8.90;;;6.95;;
49502;SDS011;35409;48.776;9.204;2023-06-22T00:44:35;9.20;;;7.32;;
49502;SDS011;35409;48.776;9.204;2023-06-22T00:47:01;9.75;;;8.05;;
49502;SDS011;35409;48.776;9.204;2023-06-22T00:49:28;11.95;;;8.45;;
49502;SDS011;35409;48.776;9.204;2023-06-22T00:51:54;12.52;;;8.27;;
49502;SDS011;35409;48.776;9.204;2023-06-22T00:54:21;12.85;;;8.77;;
49502;SDS011;35409;48.776;9.204;2023-06-22T00:56:51;9.88;;;8.07;;
49502;SDS011;35409;48.776;9.204;2023-06-22T00:59:20;9.73;;;8.23;;
49502;SDS011;35409;48.776;9.204;2023-06-22T01:01:46;11.90;;;8.55;;
49502;SDS011;35409;48.776;9.204;2023-06-22T01:04:12;12.75;;;8.43;;
49502;SDS011;35409;48.776;9.204;2023-06-22T01:07:00;10.88;;;9.20;;
49502;SDS011;35409;48.776;9.204;2023-06-22T01:09:31;15.32;;;8.57;;
49502;SDS011;35409;48.776;9.204;2023-06-22T01:12:01;10.65;;;8.20;;
49502;SDS011;35409;48.776;9.204;2023-06-22T01:14:41;13.63;;;9.57;;
49502;SDS011;35409;48.776;9.204;2023-06-22T01:17:12;14.00;;;9.15;;
49502;SDS011;35409;48.776;9.204;2023-06-22T01:19:45;10.07;;;8.15;;
49502;SDS011;35409;48.776;9.204;2023-06-22T01:22:14;11.48;;;9.20;;
49502;SDS011;35409;48.776;9.204;2023-06-22T01:24:57;10.57;;;8.30;;
49502;SDS011;35409;48.776;9.204;2023-06-22T01:30:21;12.85;;;9.02;;
49502;SDS011;35409;48.776;9.204;2023-06-22T01:32:50;10.82;;;8.57;;
49502;SDS011;35409;48.776;9.204;2023-06-22T01:35:19;10.60;;;7.82;;
49502;SDS011;35409;48.776;9.204;2023-06-22T01:37:46;11.82;;;9.40;;
49502;SDS011;35409;48.776;9.204;2023-06-22T01:40:12;9.63;;;8.63;;
49502;SDS011;35409;48.776;9.204;2023-06-22T01:42:39;13.45;;;9.07;;
49502;SDS011;35409;48.776;9.204;2023-06-22T01:45:06;10.98;;;8.20;;
49502;SDS011;35409;48.776;9.204;2023-06-22T01:47:32;12.43;;;8.43;;
49502;SDS011;35409;48.776;9.204;2023-06-22T01:49:59;10.13;;;8.90;;
49502;SDS011;35409;48.776;9.204;2023-06-22T01:52:24;9.90;;;8.60;;
49502;SDS011;35409;48.776;9.204;2023-06-22T01:54:50;8.80;;;7.90;;
49502;SDS011;35409;48.776;9.204;2023-06-22T01:57:16;10.27;;;8.40;;
49502;SDS011;35409;48.776;9.204;2023-06-22T01:59:49;11.98;;;9.38;;
49502;SDS011;35409;48.776;9.204;2023-06-22T02:02:20;10.93;;;9.15;;
49502;SDS011;35409;48.776;9.204;2023-06-22T02:04:54;10.77;;;8.43;;
49502;SDS011;35409;48.776;9.204;2023-06-22T02:07:23;10.27;;;8.27;;
49502;SDS011;35409;48.776;9.204;2023-06-22T02:09:50;11.68;;;8.75;;
49502;SDS011;35409;48.776;9.204;2023-06-22T02:12:18;10.07;;;7.93;;
49502;SDS011;35409;48.776;9.204;2023-06-22T02:14:47;10.77;;;8.65;;
49502;SDS011;35409;48.776;9.204;2023-06-22T02:17:13;9.60;;;8.07;;
49502;SDS011;35409;48.776;9.204;2023-06-22T02:19:42;9.90;;;8.32;;
49502;SDS011;35409;48.776;9.204;2023-06-22T02:22:08;15.15;;;9.10;;
49502;SDS011;35409;48.776;9.204;2023-06-22T02:24:34;9.60;;;8.60;;
49502;SDS011;35409;48.776;9.204;2023-06-22T02:27:00;10.52;;;8.65;;
49502;SDS011;35409;48.776;9.204;2023-06-22T02:29:27;11.30;;;9.00;;
49502;SDS011;35409;48.776;9.204;2023-06-22T02:31:53;10.23;;;8.38;;
49502;SDS011;35409;48.776;9.204;2023-06-22T02:34:20;12.25;;;9.57;;
49502;SDS011;35409;48.776;9.204;2023-06-22T02:36:47;14.02;;;8.95;;
49502;SDS011;35409;48.776;9.204;2023-06-22T02:39:18;12.18;;;9.27;;
49502;SDS011;35409;48.776;9.204;2023-06-22T02:41:51;11.07;;;8.68;;
49502;SDS011;35409;48.776;9.204;2023-06-22T02:44:19;10.88;;;9.82;;
49502;SDS011;35409;48.776;9.204;2023-06-22T02:46:46;15.18;;;9.80;;
49502;SDS011;35409;48.776;9.204;2023-06-22T02:49:12;13.63;;;9.85;;
49502;SDS011;35409;48.776;9.204;2023-06-22T02:51:39;9.70;;;8.70;;
49502;SDS011;35409;48.776;9.204;2023-06-22T02:54:06;12.60;;;9.75;;
49502;SDS011;35409;48.776;9.204;2023-06-22T02:56:31;11.85;;;9.70;;
49502;SDS011;35409;48.776;9.204;2023-06-22T02:58:58;11.80;;;9.40;;
49502;SDS011;35409;48.776;9.204;2023-06-22T03:01:27;12.43;;;9.05;;
49502;SDS011;35409;48.776;9.204;2023-06-22T03:03:55;10.70;;;9.30;;
49502;SDS011;35409;48.776;9.204;2023-06-22T03:06:21;11.05;;;8.95;;
49502;SDS011;35409;48.776;9.204;2023-06-22T03:08:51;11.95;;;9.85;;
49502;SDS011;35409;48.776;9.204;2023-06-22T03:11:17;11.30;;;9.57;;
49502;SDS011;35409;48.776;9.204;2023-06-22T03:13:43;10.27;;;9.15;;
49502;SDS011;35409;48.776;9.204;2023-06-22T03:16:11;10.80;;;9.38;;
49502;SDS011;35409;48.776;9.204;2023-06-22T03:18:37;11.40;;;9.95;;
49502;SDS011;35409;48.776;9.204;2023-06-22T03:21:03;12.45;;;9.65;;
49502;SDS011;35409;48.776;9.204;2023-06-22T03:23:30;15.98;;;10.05;;
49502;SDS011;35409;48.776;9.204;2023-06-22T03:25:56;16.00;;;11.13;;
49502;SDS011;35409;48.776;9.204;2023-06-22T03:28:22;12.10;;;9.98;;
49502;SDS011;35409;48.776;9.204;2023-06-22T03:30:48;12.50;;;10.35;;
49502;SDS011;35409;48.776;9.204;2023-06-22T03:33:14;10.73;;;9.43;;
49502;SDS011;35409;48.776;9.204;2023-06-22T03:35:40;11.38;;;9.88;;
49502;SDS011;35409;48.776;9.204;2023-06-22T03:38:07;11.10;;;9.57;;
49502;SDS011;35409;48.776;9.204;2023-06-22T03:40:33;12.98;;;10.15;;
49502;SDS011;35409;48.776;9.204;2023-06-22T03:42:59;13.02;;;10.25;;
49502;SDS011;35409;48.776;9.204;2023-06-22T03:45:25;14.85;;;10.27;;
49502;SDS011;35409;48.776;9.204;2023-06-22T03:47:51;10.93;;;9.32;;
49502;SDS011;35409;48.776;9.204;2023-06-22T03:50:16;10.43;;;9.43;;
49502;SDS011;35409;48.776;9.204;2023-06-22T03:52:45;14.07;;;11.57;;
49502;SDS011;35409;48.776;9.204;2023-06-22T03:55:11;10.77;;;9.52;;
49502;SDS011;35409;48.776;9.204;2023-06-22T03:57:37;10.75;;;9.65;;
49502;SDS011;35409;48.776;9.204;2023-06-22T04:00:03;14.57;;;10.35;;
49502;SDS011;35409;48.776;9.204;2023-06-22T04:02:33;11.52;;;8.95;;
49502;SDS011;35409;48.776;9.204;2023-06-22T04:04:59;14.60;;;9.93;;
49502;SDS011;35409;48.776;9.204;2023-06-22T04:07:24;12.48;;;9.98;;
49502;SDS011;35409;48.776;9.204;2023-06-22T04:09:51;11.35;;;9.48;;
49502;SDS011;35409;48.776;9.204;2023-06-22T04:12:16;11.70;;;9.43;;
49502;SDS011;35409;48.776;9.204;2023-06-22T04:14:42;10.98;;;9.43;;
49502;SDS011;35409;48.776;9.204;2023-06-22T04:17:08;14.70;;;10.30;;
49502;SDS011;35409;48.776;9.204;2023-06-22T04:19:34;11.55;;;9.15;;
49502;SDS011;35409;48.776;9.204;2023-06-22T04:22:00;13.20;;;10.38;;
49502;SDS011;35409;48.776;9.204;2023-06-22T04:24:26;10.82;;;9.48;;
49502;SDS011;35409;48.776;9.204;2023-06-22T04:26:52;10.27;;;9.27;;
49502;SDS011;35409;48.776;9.204;2023-06-22T04:29:19;14.35;;;10.43;;
49502;SDS011;35409;48.776;9.204;2023-06-22T04:31:45;13.63;;;10.43;;
49502;SDS011;35409;48.776;9.204;2023-06-22T04:34:15;13.73;;;10.38;;
49502;SDS011;35409;48.776;9.204;2023-06-22T04:36:41;15.30;;;11.25;;
49502;SDS011;35409;48.776;9.204;2023-06-22T04:39:08;12.13;;;10.02;;
49502;SDS011;35409;48.776;9.204;2023-06-22T04:41:35;13.48;;;9.50;;
49502;SDS011;35409;48.776;9.204;2023-06-22T04:44:09;12.27;;;9.35;;
49502;SDS011;35409;48.776;9.204;2023-06-22T04:46:36;11.60;;;9.43;;
49502;SDS011;35409;48.776;9.204;2023-06-22T04:49:06;13.90;;;9.43;;
49502;SDS011;35409;48.776;9.204;2023-06-22T04:51:36;13.63;;;10.23;;
49502;SDS011;35409;48.776;9.204;2023-06-22T04:54:03;10.27;;;9.18;;
49502;SDS011;35409;48.776;9.204;2023-06-22T04:56:30;15.82;;;11.52;;
49502;SDS011;35409;48.776;9.204;2023-06-22T04:58:56;12.25;;;10.57;;
49502;SDS011;35409;48.776;9.204;2023-06-22T05:01:23;13.82;;;11.00;;
49502;SDS011;35409;48.776;9.204;2023-06-22T05:03:50;16.08;;;10.68;;
49502;SDS011;35409;48.776;9.204;2023-06-22T05:08:46;16.42;;;11.82;;
49502;SDS011;35409;48.776;9.204;2023-06-22T05:11:12;12.95;;;10.07;;
49502;SDS011;35409;48.776;9.204;2023-06-22T05:13:38;12.00;;;10.55;;
49502;SDS011;35409;48.776;9.204;2023-06-22T05:16:04;15.80;;;11.73;;
49502;SDS011;35409;48.776;9.204;2023-06-22T05:18:30;15.38;;;12.00;;
49502;SDS011;35409;48.776;9.204;2023-06-22T05:20:57;16.75;;;11.77;;
49502;SDS011;35409;48.776;9.204;2023-06-22T05:23:24;16.23;;;10.70;;
49502;SDS011;35409;48.776;9.204;2023-06-22T05:25:50;12.85;;;10.10;;
49502;SDS011;35409;48.776;9.204;2023-06-22T05:28:17;15.88;;;9.18;;
49502;SDS011;35409;48.776;9.204;2023-06-22T05:30:47;12.07;;;10.65;;
49502;SDS011;35409;48.776;9.204;2023-06-22T05:33:13;16.35;;;11.10;;
49502;SDS011;35409;48.776;9.204;2023-06-22T05:35:39;15.50;;;10.00;;
49502;SDS011;35409;48.776;9.204;2023-06-22T05:38:06;15.25;;;10.60;;
49502;SDS011;35409;48.776;9.204;2023-06-22T05:40:32;13.13;;;9.45;;
49502;SDS011;35409;48.776;9.204;2023-06-22T05:42:58;13.43;;;9.93;;
49502;SDS011;35409;48.776;9.204;2023-06-22T05:45:26;13.23;;;9.35;;
49502;SDS011;35409;48.776;9.204;2023-06-22T05:47:52;15.40;;;9.18;;
49502;SDS011;35409;48.776;9.204;2023-06-22T05:50:18;11.30;;;9.40;;
49502;SDS011;35409;48.776;9.204;2023-06-22T05:52:44;12.77;;;9.25;;
49502;SDS011;35409;48.776;9.204;2023-06-22T05:55:10;11.82;;;8.45;;
49502;SDS011;35409;48.776;9.204;2023-06-22T05:57:36;12.82;;;8.85;;
49502;SDS011;35409;48.776;9.204;2023-06-22T06:00:02;14.10;;;8.77;;
49502;SDS011;35409;48.776;9.204;2023-06-22T06:02:31;13.23;;;8.67;;
49502;SDS011;35409;48.776;9.204;2023-06-22T06:04:58;12.90;;;8.23;;
49502;SDS011;35409;48.776;9.204;2023-06-22T06:07:24;11.80;;;7.97;;
49502;SDS011;35409;48.776;9.204;2023-06-22T06:09:51;10.82;;;8.65;;
49502;SDS011;35409;48.776;9.204;2023-06-22T06:12:17;10.48;;;8.68;;
49502;SDS011;35409;48.776;9.204;2023-06-22T06:14:43;14.40;;;8.90;;
49502;SDS011;35409;48.776;9.204;2023-06-22T06:17:09;11.70;;;8.80;;
49502;SDS011;35409;48.776;9.204;2023-06-22T06:19:35;16.00;;;8.57;;
49502;SDS011;35409;48.776;9.204;2023-06-22T06:22:01;14.70;;;8.27;;
49502;SDS011;35409;48.776;9.204;2023-06-22T06:24:27;15.02;;;8.48;;
49502;SDS011;35409;48.776;9.204;2023-06-22T06:26:53;12.23;;;7.80;;
49502;SDS011;35409;48.776;9.204;2023-06-22T06:29:19;11.48;;;8.25;;
49502;SDS011;35409;48.776;9.204;2023-06-22T06:31:45;12.10;;;8.48;;
49502;SDS011;35409;48.776;9.204;2023-06-22T06:34:11;10.45;;;7.70;;
49502;SDS011;35409;48.776;9.204;2023-06-22T06:36:37;10.05;;;7.00;;
49502;SDS011;35409;48.776;9.204;2023-06-22T06:39:03;12.48;;;7.47;;
49502;SDS011;35409;48.776;9.204;2023-06-22T06:41:29;12.43;;;6.50;;
49502;SDS011;35409;48.776;9.204;2023-06-22T06:43:54;12.52;;;7.60;;
49502;SDS011;35409;48.776;9.204;2023-06-22T06:46:21;10.07;;;6.97;;
49502;SDS011;35409;48.776;9.204;2023-06-22T06:48:46;14.23;;;7.38;;
49502;SDS011;35409;48.776;9.204;2023-06-22T06:51:13;13.13;;;7.45;;
49502;SDS011;35409;48.776;9.204;2023-06-22T06:53:39;11.07;;;8.65;;
49502;SDS011;35409;48.776;9.204;2023-06-22T06:56:05;9.30;;;7.50;;
49502;SDS011;35409;48.776;9.204;2023-06-22T06:58:31;12.95;;;7.95;;
49502;SDS011;35409;48.776;9.204;2023-06-22T07:00:57;12.40;;;8.10;;
49502;SDS011;35409;48.776;9.204;2023-06-22T07:03:23;12.07;;;8.65;;
49502;SDS011;35409;48.776;9.204;2023-06-22T07:05:49;8.25;;;6.68;;
49502;SDS011;35409;48.776;9.204;2023-06-22T07:08:15;8.88;;;6.68;;
49502;SDS011;35409;48.776;9.204;2023-06-22T07:10:41;11.57;;;7.60;;
49502;SDS011;35409;48.776;9.204;2023-06-22T07:13:07;15.30;;;7.95;;
49502;SDS011;35409;48.776;9.204;2023-06-22T07:15:33;10.75;;;7.90;;
49502;SDS011;35409;48.776;9.204;2023-06-22T07:17:59;9.75;;;6.40;;
49502;SDS011;35409;48.776;9.204;2023-06-22T07:20:25;10.15;;;6.28;;
49502;SDS011;35409;48.776;9.204;2023-06-22T07:22:51;13.70;;;7.57;;
49502;SDS011;35409;48.776;9.204;2023-06-22T07:25:18;12.38;;;6.57;;
49502;SDS011;35409;48.776;9.204;2023-06-22T07:27:45;11.65;;;7.55;;
49502;SDS011;35409;48.776;9.204;2023-06-22T07:30:12;11.68;;;7.03;;
49502;SDS011;35409;48.776;9.204;2023-06-22T07:32:39;9.85;;;5.88;;
49502;SDS011;35409;48.776;9.204;2023-06-22T07:35:05;9.35;;;6.63;;
49502;SDS011;35409;48.776;9.204;2023-06-22T07:37:31;9.50;;;7.25;;
49502;SDS011;35409;48.776;9.204;2023-06-22T07:39:59;14.30;;;6.88;;
49502;SDS011;35409;48.776;9.204;2023-06-22T07:42:25;7.97;;;5.78;;
49502;SDS011;35409;48.776;9.204;2023-06-22T07:44:51;9.75;;;6.45;;
49502;SDS011;35409;48.776;9.204;2023-06-22T07:47:17;10.85;;;6.88;;
49502;SDS011;35409;48.776;9.204;2023-06-22T07:49:44;10.35;;;5.88;;
49502;SDS011;35409;48.776;9.204;2023-06-22T07:52:10;6.47;;;5.50;;
49502;SDS011;35409;48.776;9.204;2023-06-22T07:54:36;10.15;;;6.88;;
49502;SDS011;35409;48.776;9.204;2023-06-22T07:57:02;7.93;;;5.90;;
49502;SDS011;35409;48.776;9.204;2023-06-22T07:59:28;10.45;;;6.38;;
49502;SDS011;35409;48.776;9.204;2023-06-22T08:01:56;12.23;;;5.85;;
49502;SDS011;35409;48.776;9.204;2023-06-22T08:04:22;11.57;;;5.47;;
49502;SDS011;35409;48.776;9.204;2023-06-22T08:06:48;9.57;;;5.80;;
49502;SDS011;35409;48.776;9.204;2023-06-22T08:09:16;14.48;;;6.35;;
49502;SDS011;35409;48.776;9.204;2023-06-22T08:11:42;11.10;;;5.60;;
49502;SDS011;35409;48.776;9.204;2023-06-22T08:14:08;15.38;;;6.15;;
49502;SDS011;35409;48.776;9.204;2023-06-22T08:16:33;8.77;;;5.53;;
49502;SDS011;35409;48.776;9.204;2023-06-22T08:18:59;10.27;;;5.75;;
49502;SDS011;35409;48.776;9.204;2023-06-22T08:21:24;12.85;;;6.53;;
49502;SDS011;35409;48.776;9.204;2023-06-22T08:23:50;9.88;;;5.65;;
49502;SDS011;35409;48.776;9.204;2023-06-22T08:26:15;7.63;;;5.47;;
49502;SDS011;35409;48.776;9.204;2023-06-22T08:28:41;8.68;;;5.85;;
49502;SDS011;35409;48.776;9.204;2023-06-22T08:31:07;9.25;;;5.40;;
49502;SDS011;35409;48.776;9.204;2023-06-22T08:33:33;9.63;;;6.07;;
49502;SDS011;35409;48.776;9.204;2023-06-22T08:35:59;10.05;;;6.50;;
49502;SDS011;35409;48.776;9.204;2023-06-22T08:38:25;11.88;;;5.78;;
49502;SDS011;35409;48.776;9.204;2023-06-22T08:40:51;10.48;;;6.32;;
49502;SDS011;35409;48.776;9.204;2023-06-22T08:43:16;11.75;;;6.47;;
49502;SDS011;35409;48.776;9.204;2023-06-22T08:45:42;13.80;;;6.68;;
49502;SDS011;35409;48.776;9.204;2023-06-22T08:48:08;8.13;;;5.88;;
49502;SDS011;35409;48.776;9.204;2023-06-22T08:50:33;9.88;;;5.30;;
49502;SDS011;35409;48.776;9.204;2023-06-22T08:52:59;11.30;;;5.95;;
49502;SDS011;35409;48.776;9.204;2023-06-22T08:55:24;10.00;;;5.15;;
49502;SDS011;35409;48.776;9.204;2023-06-22T08:57:50;9.52;;;5.40;;
49502;SDS011;35409;48.776;9.204;2023-06-22T09:00:16;9.90;;;5.72;;
49502;SDS011;35409;48.776;9.204;2023-06-22T09:02:43;11.63;;;5.53;;
49502;SDS011;35409;48.776;9.204;2023-06-22T09:05:09;15.02;;;6.20;;
49502;SDS011;35409;48.776;9.204;2023-06-22T09:07:36;9.55;;;5.57;;
49502;SDS011;35409;48.776;9.204;2023-06-22T09:10:02;20.83;;;6.30;;
49502;SDS011;35409;48.776;9.204;2023-06-22T09:12:31;10.18;;;5.43;;
49502;SDS011;35409;48.776;9.204;2023-06-22T09:14:58;14.48;;;5.82;;
49502;SDS011;35409;48.776;9.204;2023-06-22T09:17:25;21.50;;;5.57;;
49502;SDS011;35409;48.776;9.204;2023-06-22T09:19:51;15.27;;;5.88;;
49502;SDS011;35409;48.776;9.204;2023-06-22T09:22:17;12.38;;;5.68;;
49502;SDS011;35409;48.776;9.204;2023-06-22T09:24:43;11.95;;;6.85;;
49502;SDS011;35409;48.776;9.204;2023-06-22T09:27:08;19.25;;;6.20;;
49502;SDS011;35409;48.776;9.204;2023-06-22T09:29:34;14.30;;;5.45;;
49502;SDS011;35409;48.776;9.204;2023-06-22T09:32:00;13.30;;;6.25;;
49502;SDS011;35409;48.776;9.204;2023-06-22T09:34:26;17.17;;;6.28;;
49502;SDS011;35409;48.776;9.204;2023-06-22T09:36:52;11.90;;;5.93;;
49502;SDS011;35409;48.776;9.204;2023-06-22T09:39:17;10.55;;;5.80;;
49502;SDS011;35409;48.776;9.204;2023-06-22T09:41:43;11.15;;;5.75;;
49502;SDS011;35409;48.776;9.204;2023-06-22T09:44:09;9.40;;;5.68;;
49502;SDS011;35409;48.776;9.204;2023-06-22T09:46:35;26.15;;;5.97;;
49502;SDS011;35409;48.776;9.204;2023-06-22T09:49:00;16.98;;;7.40;;
49502;SDS011;35409;48.776;9.204;2023-06-22T09:51:26;10.90;;;5.55;;
49502;SDS011;35409;48.776;9.204;2023-06-22T09:53:51;15.23;;;6.25;;
49502;SDS011;35409;48.776;9.204;2023-06-22T09:56:18;10.80;;;5.47;;
49502;SDS011;35409;48.776;9.204;2023-06-22T09:58:45;11.95;;;6.40;;
49502;SDS011;35409;48.776;9.204;2023-06-22T10:01:11;13.43;;;6.82;;
49502;SDS011;35409;48.776;9.204;2023-06-22T10:03:39;18.38;;;6.53;;
49502;SDS011;35409;48.776;9.204;2023-06-22T10:06:06;15.82;;;6.60;;
49502;SDS011;35409;48.776;9.204;2023-06-22T10:08:32;13.50;;;5.97;;
49502;SDS011;35409;48.776;9.204;2023-06-22T10:10:58;13.45;;;5.78;;
49502;SDS011;35409;48.776;9.204;2023-06-22T10:13:23;10.02;;;5.72;;
49502;SDS011;35409;48.776;9.204;2023-06-22T10:15:49;15.07;;;6.63;;
49502;SDS011;35409;48.776;9.204;2023-06-22T10:18:17;19.88;;;6.82;;
49502;SDS011;35409;48.776;9.204;2023-06-22T10:20:43;18.33;;;6.25;;
49502;SDS011;35409;48.776;9.204;2023-06-22T10:23:12;10.73;;;5.90;;
49502;SDS011;35409;48.776;9.204;2023-06-22T10:25:37;12.95;;;6.10;;
49502;SDS011;35409;48.776;9.204;2023-06-22T10:28:03;10.60;;;6.18;;
49502;SDS011;35409;48.776;9.204;2023-06-22T10:30:29;15.38;;;6.38;;
49502;SDS011;35409;48.776;9.204;2023-06-22T10:32:54;10.30;;;5.25;;
49502;SDS011;35409;48.776;9.204;2023-06-22T10:35:22;11.57;;;7.00;;
49502;SDS011;35409;48.776;9.204;2023-06-22T10:37:48;12.18;;;6.22;;
49502;SDS011;35409;48.776;9.204;2023-06-22T10:40:14;11.95;;;6.20;;
49502;SDS011;35409;48.776;9.204;2023-06-22T10:42:42;14.77;;;6.32;;
49502;SDS011;35409;48.776;9.204;2023-06-22T10:45:08;11.63;;;5.82;;
49502;SDS011;35409;48.776;9.204;2023-06-22T10:47:34;13.02;;;6.18;;
49502;SDS011;35409;48.776;9.204;2023-06-22T10:50:01;12.35;;;5.93;;
49502;SDS011;35409;48.776;9.204;2023-06-22T10:52:27;12.02;;;5.97;;
49502;SDS011;35409;48.776;9.204;2023-06-22T10:54:52;13.45;;;6.30;;
49502;SDS011;35409;48.776;9.204;2023-06-22T10:57:18;13.50;;;6.70;;
49502;SDS011;35409;48.776;9.204;2023-06-22T10:59:44;15.95;;;6.68;;
49502;SDS011;35409;48.776;9.204;2023-06-22T11:02:09;13.30;;;6.15;;
49502;SDS011;35409;48.776;9.204;2023-06-22T11:04:35;11.38;;;5.75;;
49502;SDS011;35409;48.776;9.204;2023-06-22T11:07:01;13.48;;;6.40;;
49502;SDS011;35409;48.776;9.204;2023-06-22T11:09:27;10.63;;;5.65;;
49502;SDS011;35409;48.776;9.204;2023-06-22T11:11:52;11.20;;;5.78;;
49502;SDS011;35409;48.776;9.204;2023-06-22T11:14:18;12.05;;;5.55;;
49502;SDS011;35409;48.776;9.204;2023-06-22T11:16:44;24.02;;;6.50;;
49502;SDS011;35409;48.776;9.204;2023-06-22T11:19:11;16.60;;;5.90;;
49502;SDS011;35409;48.776;9.204;2023-06-22T11:21:37;14.20;;;6.03;;
49502;SDS011;35409;48.776;9.204;2023-06-22T11:24:03;13.10;;;5.72;;
49502;SDS011;35409;48.776;9.204;2023-06-22T11:26:29;14.05;;;6.13;;
49502;SDS011;35409;48.776;9.204;2023-06-22T11:28:56;12.93;;;6.40;;
49502;SDS011;35409;48.776;9.204;2023-06-22T11:31:22;12.05;;;6.03;;
49502;SDS011;35409;48.776;9.204;2023-06-22T11:33:48;13.45;;;6.10;;
49502;SDS011;35409;48.776;9.204;2023-06-22T11:36:14;12.57;;;6.30;;
49502;SDS011;35409;48.776;9.204;2023-06-22T11:38:40;11.80;;;6.00;;
49502;SDS011;35409;48.776;9.204;2023-06-22T11:41:06;15.52;;;6.30;;
49502;SDS011;35409;48.776;9.204;2023-06-22T11:43:32;14.35;;;6.00;;
49502;SDS011;35409;48.776;9.204;2023-06-22T11:45:58;11.35;;;6.60;;
49502;SDS011;35409;48.776;9.204;2023-06-22T11:48:24;41.97;;;7.70;;
49502;SDS011;35409;48.776;9.204;2023-06-22T11:50:50;22.58;;;6.85;;
49502;SDS011;35409;48.776;9.204;2023-06-22T11:53:16;22.33;;;7.95;;
49502;SDS011;35409;48.776;9.204;2023-06-22T11:55:42;12.68;;;6.65;;
49502;SDS011;35409;48.776;9.204;2023-06-22T11:58:09;16.58;;;5.80;;
49502;SDS011;35409;48.776;9.204;2023-06-22T12:00:34;12.80;;;6.03;;
49502;SDS011;35409;48.776;9.204;2023-06-22T12:03:00;14.05;;;6.15;;
49502;SDS011;35409;48.776;9.204;2023-06-22T12:05:26;11.57;;;6.40;;
49502;SDS011;35409;48.776;9.204;2023-06-22T12:07:54;16.35;;;6.68;;
49502;SDS011;35409;48.776;9.204;2023-06-22T12:10:24;14.93;;;6.07;;
49502;SDS011;35409;48.776;9.204;2023-06-22T12:12:50;13.45;;;6.05;;
49502;SDS011;35409;48.776;9.204;2023-06-22T12:15:16;11.27;;;6.20;;
49502;SDS011;35409;48.776;9.204;2023-06-22T12:17:42;16.38;;;6.57;;
49502;SDS011;35409;48.776;9.204;2023-06-22T12:20:08;13.48;;;5.75;;
49502;SDS011;35409;48.776;9.204;2023-06-22T12:22:34;12.68;;;6.57;;
49502;SDS011;35409;48.776;9.204;2023-06-22T12:25:00;23.75;;;6.75;;
49502;SDS011;35409;48.776;9.204;2023-06-22T12:27:26;13.68;;;5.82;;
49502;SDS011;35409;48.776;9.204;2023-06-22T12:29:52;11.07;;;5.88;;
49502;SDS011;35409;48.776;9.204;2023-06-22T12:32:17;14.30;;;6.25;;
49502;SDS011;35409;48.776;9.204;2023-06-22T12:34:43;11.55;;;5.85;;
49502;SDS011;35409;48.776;9.204;2023-06-22T12:37:10;14.02;;;7.07;;
49502;SDS011;35409;48.776;9.204;2023-06-22T12:39:35;11.90;;;5.93;;
49502;SDS011;35409;48.776;9.204;2023-06-22T12:42:01;14.45;;;6.75;;
49502;SDS011;35409;48.776;9.204;2023-06-22T12:44:27;13.00;;;6.55;;
49502;SDS011;35409;48.776;9.204;2023-06-22T12:46:53;17.10;;;6.15;;
49502;SDS011;35409;48.776;9.204;2023-06-22T12:49:18;10.45;;;6.03;;
49502;SDS011;35409;48.776;9.204;2023-06-22T12:51:45;12.00;;;7.05;;
49502;SDS011;35409;48.776;9.204;2023-06-22T12:54:10;14.70;;;7.65;;
49502;SDS011;35409;48.776;9.204;2023-06-22T12:56:36;14.90;;;6.38;;
49502;SDS011;35409;48.776;9.204;2023-06-22T12:59:03;14.07;;;6.82;;
49502;SDS011;35409;48.776;9.204;2023-06-22T13:01:29;11.57;;;6.63;;
49502;SDS011;35409;48.776;9.204;2023-06-22T13:03:55;10.57;;;6.22;;
49502;SDS011;35409;48.776;9.204;2023-06-22T13:06:21;23.10;;;7.22;;
49502;SDS011;35409;48.776;9.204;2023-06-22T13:08:47;16.63;;;6.93;;
49502;SDS011;35409;48.776;9.204;2023-06-22T13:11:13;15.20;;;7.25;;
49502;SDS011;35409;48.776;9.204;2023-06-22T13:13:39;11.55;;;6.68;;
49502;SDS011;35409;48.776;9.204;2023-06-22T13:16:05;15.38;;;6.63;;
49502;SDS011;35409;48.776;9.204;2023-06-22T13:18:30;13.95;;;6.07;;
49502;SDS011;35409;48.776;9.204;2023-06-22T13:20:56;16.92;;;7.38;;
49502;SDS011;35409;48.776;9.204;2023-06-22T13:23:23;14.48;;;6.50;;
49502;SDS011;35409;48.776;9.204;2023-06-22T13:25:48;15.25;;;6.47;;
49502;SDS011;35409;48.776;9.204;2023-06-22T13:28:14;13.32;;;6.32;;
49502;SDS011;35409;48.776;9.204;2023-06-22T13:30:41;12.30;;;6.22;;
49502;SDS011;35409;48.776;9.204;2023-06-22T13:33:06;10.43;;;6.47;;
49502;SDS011;35409;48.776;9.204;2023-06-22T13:35:32;15.95;;;6.78;;
49502;SDS011;35409;48.776;9.204;2023-06-22T13:37:58;8.93;;;5.78;;
49502;SDS011;35409;48.776;9.204;2023-06-22T13:40:23;15.13;;;6.25;;
49502;SDS011;35409;48.776;9.204;2023-06-22T13:42:49;13.43;;;5.85;;
49502;SDS011;35409;48.776;9.204;2023-06-22T13:45:15;13.82;;;6.43;;
49502;SDS011;35409;48.776;9.204;2023-06-22T13:47:42;11.57;;;6.43;;
49502;SDS011;35409;48.776;9.204;2023-06-22T13:50:08;10.48;;;6.10;;
49502;SDS011;35409;48.776;9.204;2023-06-22T13:52:34;15.65;;;6.35;;
49502;SDS011;35409;48.776;9.204;2023-06-22T13:54:59;17.10;;;6.47;;
49502;SDS011;35409;48.776;9.204;2023-06-22T13:57:25;15.18;;;6.65;;
49502;SDS011;35409;48.776;9.204;2023-06-22T13:59:51;22.17;;;7.18;;
49502;SDS011;35409;48.776;9.204;2023-06-22T14:02:17;11.95;;;5.65;;
49502;SDS011;35409;48.776;9.204;2023-06-22T14:04:43;10.10;;;5.32;;
49502;SDS011;35409;48.776;9.204;2023-06-22T14:07:09;12.00;;;5.68;;
49502;SDS011;35409;48.776;9.204;2023-06-22T14:09:35;15.68;;;6.53;;
49502;SDS011;35409;48.776;9.204;2023-06-22T14:12:04;11.85;;;6.13;;
49502;SDS011;35409;48.776;9.204;2023-06-22T14:14:31;13.82;;;6.35;;
49502;SDS011;35409;48.776;9.204;2023-06-22T14:16:57;12.40;;;6.43;;
49502;SDS011;35409;48.776;9.204;2023-06-22T14:19:23;15.23;;;6.30;;
49502;SDS011;35409;48.776;9.204;2023-06-22T14:21:49;14.93;;;5.65;;
49502;SDS011;35409;48.776;9.204;2023-06-22T14:24:15;12.57;;;5.47;;
49502;SDS011;35409;48.776;9.204;2023-06-22T14:26:41;16.27;;;6.50;;
49502;SDS011;35409;48.776;9.204;2023-06-22T14:29:06;17.80;;;5.93;;
49502;SDS011;35409;48.776;9.204;2023-06-22T14:31:32;14.75;;;5.80;;
49502;SDS011;35409;48.776;9.204;2023-06-22T14:33:58;17.75;;;6.57;;
49502;SDS011;35409;48.776;9.204;2023-06-22T14:36:23;14.02;;;5.20;;